createdAt,value
2023-11-09T00:00:31.406Z,99479.56
2023-11-09T00:02:57.760Z,99468.19
2023-11-09T00:05:24.338Z,99467.34
2023-11-09T00:07:50.701Z,99460.38
2023-11-09T00:10:17.110Z,99462.81
2023-11-09T00:12:44.235Z,99466.25
2023-11-09T00:15:11.719Z,99454.78
2023-11-09T00:17:38.363Z,99439.69
2023-11-09T00:20:05.386Z,99439.59
2023-11-09T00:22:31.735Z,99431.59
2023-11-09T00:24:58.203Z,99427.78
2023-11-09T00:27:24.655Z,99431.00
2023-11-09T00:29:51.175Z,99431.81
2023-11-09T00:32:17.731Z,99426.38
2023-11-09T00:34:47.392Z,99421.97
2023-11-09T00:37:14.007Z,99412.31
2023-11-09T00:39:40.772Z,99415.84
2023-11-09T00:42:07.314Z,99404.38
2023-11-09T00:44:34.710Z,99405.16
2023-11-09T00:47:01.323Z,99397.06
2023-11-09T00:49:27.723Z,99399.44
2023-11-09T00:51:54.099Z,99391.38
2023-11-09T00:54:20.565Z,99385.00
2023-11-09T00:56:46.894Z,99372.53
2023-11-09T00:59:13.255Z,99366.34
2023-11-09T01:01:39.582Z,99373.16
2023-11-09T01:04:06.932Z,99366.91
2023-11-09T01:06:34.407Z,99365.06
2023-11-09T01:09:00.757Z,99358.75
2023-11-09T01:11:27.608Z,99360.34
2023-11-09T01:13:53.928Z,99357.66
2023-11-09T01:16:21.674Z,99348.00
2023-11-09T01:18:49.016Z,99345.38
2023-11-09T01:21:16.492Z,99343.66
2023-11-09T01:23:43.039Z,99325.22
2023-11-09T01:26:10.321Z,99324.16
2023-11-09T01:28:37.365Z,99330.47
2023-11-09T01:31:04.311Z,99321.72
2023-11-09T01:33:30.870Z,99326.88
2023-11-09T01:35:57.293Z,99325.16
2023-11-09T01:38:26.267Z,99318.50
2023-11-09T01:40:54.306Z,99310.59
2023-11-09T01:43:20.879Z,99312.50
2023-11-09T01:45:52.057Z,99314.50
2023-11-09T01:48:23.037Z,99323.44
2023-11-09T01:50:52.740Z,99312.72
2023-11-09T01:53:20.228Z,99310.06
2023-11-09T01:55:47.063Z,99310.44
2023-11-09T01:58:13.929Z,99308.44
2023-11-09T02:00:44.631Z,99316.66
2023-11-09T02:03:12.756Z,99310.69
2023-11-09T02:05:39.703Z,99309.06
2023-11-09T02:08:06.239Z,99304.56
2023-11-09T02:10:36.709Z,99303.72
2023-11-09T02:13:03.390Z,99288.78
2023-11-09T02:15:30.242Z,99285.41
2023-11-09T02:17:56.741Z,99299.47
2023-11-09T02:20:23.811Z,99293.47
2023-11-09T02:22:53.946Z,99296.13
2023-11-09T02:25:21.623Z,99290.91
2023-11-09T02:27:47.965Z,99289.22
2023-11-09T02:30:14.416Z,99284.03
2023-11-09T02:32:40.840Z,99279.66
2023-11-09T02:35:08.360Z,99281.44
2023-11-09T02:37:34.883Z,99272.75
2023-11-09T02:40:01.664Z,99270.09
2023-11-09T02:42:27.975Z,99272.69
2023-11-09T02:44:54.362Z,99268.44
2023-11-09T02:47:20.742Z,99261.47
2023-11-09T02:49:47.055Z,99264.28
2023-11-09T02:52:13.481Z,99270.41
2023-11-09T02:54:40.146Z,99252.72
2023-11-09T02:57:07.390Z,99260.53
2023-11-09T02:59:33.766Z,99257.97
2023-11-09T03:02:00.217Z,99257.19
2023-11-09T03:04:26.602Z,99240.78
2023-11-09T03:06:53.010Z,99243.13
2023-11-09T03:09:20.784Z,99231.84
2023-11-09T03:11:47.202Z,99245.97
2023-11-09T03:14:14.334Z,99236.50
2023-11-09T03:16:40.668Z,99244.41
2023-11-09T03:19:08.339Z,99237.31
2023-11-09T03:21:34.741Z,99230.38
2023-11-09T03:24:01.088Z,99232.06
2023-11-09T03:26:27.424Z,99233.81
2023-11-09T03:28:53.837Z,99220.44
2023-11-09T03:31:20.354Z,99228.38
2023-11-09T03:33:46.753Z,99221.94
2023-11-09T03:36:18.498Z,99218.91
2023-11-09T03:38:46.703Z,99218.03
2023-11-09T03:41:13.311Z,99208.34
2023-11-09T03:43:39.800Z,99204.09
2023-11-09T03:46:12.657Z,99200.59
2023-11-09T03:48:39.014Z,99194.50
2023-11-09T03:51:05.519Z,99199.94
2023-11-09T03:53:32.045Z,99189.34
2023-11-09T03:55:58.424Z,99189.41
2023-11-09T03:58:24.861Z,99188.50
2023-11-09T04:00:51.204Z,99191.13
2023-11-09T04:03:17.531Z,99186.69
2023-11-09T04:05:43.920Z,99179.53
2023-11-09T04:08:10.284Z,99183.78
2023-11-09T04:10:36.637Z,99177.56
2023-11-09T04:13:02.964Z,99170.34
2023-11-09T04:15:29.273Z,99166.72
2023-11-09T04:17:55.641Z,99168.44
2023-11-09T04:20:22.463Z,99157.75
2023-11-09T04:22:48.754Z,99164.59
2023-11-09T04:25:15.784Z,99159.25
2023-11-09T04:27:44.257Z,99163.50
2023-11-09T04:30:11.339Z,99159.00
2023-11-09T04:32:37.673Z,99150.34
2023-11-09T04:35:05.238Z,99146.09
2023-11-09T04:37:32.578Z,99138.16
2023-11-09T04:39:59.816Z,99136.44
2023-11-09T04:42:30.333Z,99137.25
2023-11-09T04:44:58.031Z,99138.97
2023-11-09T04:47:26.696Z,99131.91
2023-11-09T04:49:59.804Z,99115.09
2023-11-09T04:52:28.071Z,99121.34
2023-11-09T04:55:13.650Z,99122.94
2023-11-09T04:57:59.932Z,99116.75
2023-11-09T05:00:45.214Z,99121.16
2023-11-09T05:03:30.635Z,99122.25
2023-11-09T05:06:15.980Z,99123.16
2023-11-09T05:08:42.726Z,99104.50
2023-11-09T05:11:12.425Z,99108.09
2023-11-09T05:13:38.833Z,99113.41
2023-11-09T05:16:05.708Z,99102.00
2023-11-09T05:18:32.294Z,99102.81
2023-11-09T05:20:59.741Z,99102.84
2023-11-09T05:23:26.868Z,99088.75
2023-11-09T05:25:53.236Z,99098.31
2023-11-09T05:28:20.089Z,99091.06
2023-11-09T05:30:52.408Z,99090.88
2023-11-09T05:33:19.647Z,99091.72
2023-11-09T05:35:46.524Z,99085.59
2023-11-09T05:38:12.834Z,99082.94
2023-11-09T05:40:39.273Z,99076.69
2023-11-09T05:43:06.557Z,99082.03
2023-11-09T05:45:32.973Z,99073.38
2023-11-09T05:47:59.903Z,99067.19
2023-11-09T05:50:26.296Z,99072.50
2023-11-09T05:52:52.611Z,99082.94
2023-11-09T05:55:19.172Z,99091.00
2023-11-09T05:57:45.580Z,99083.84
2023-11-09T06:00:12.342Z,99088.22
2023-11-09T06:02:38.724Z,99083.78
2023-11-09T06:05:05.318Z,99094.38
2023-11-09T06:07:32.119Z,99082.00
2023-11-09T06:09:58.418Z,99085.69
2023-11-09T06:12:25.814Z,99079.66
2023-11-09T06:14:52.158Z,99086.97
2023-11-09T06:17:18.538Z,99079.75
2023-11-09T06:19:46.208Z,99085.25
2023-11-09T06:22:13.378Z,99091.47
2023-11-09T06:24:39.729Z,99087.22
2023-11-09T06:27:08.139Z,99093.47
2023-11-09T06:29:34.840Z,99104.97
2023-11-09T06:32:01.230Z,99105.97
2023-11-09T06:34:27.874Z,99109.53
2023-11-09T06:36:54.864Z,99121.06
2023-11-09T06:39:23.784Z,99114.03
2023-11-09T06:41:50.136Z,99115.16
2023-11-09T06:44:17.001Z,99111.91
2023-11-09T06:46:43.316Z,99114.69
2023-11-09T06:49:09.822Z,99111.31
2023-11-09T06:51:36.405Z,99117.56
2023-11-09T06:54:04.161Z,99118.50
2023-11-09T06:56:33.511Z,99122.22
2023-11-09T06:59:00.610Z,99122.31
2023-11-09T07:01:27.509Z,99113.56
2023-11-09T07:03:53.866Z,99133.28
2023-11-09T07:06:20.408Z,99124.75
2023-11-09T07:08:46.733Z,99129.38
2023-11-09T07:11:13.132Z,99136.53
2023-11-09T07:13:39.550Z,99141.13
2023-11-09T07:16:08.287Z,99140.56
2023-11-09T07:18:35.624Z,99147.06
2023-11-09T07:21:10.425Z,99140.41
2023-11-09T07:23:38.777Z,99134.47
2023-11-09T07:26:05.489Z,99134.03
2023-11-09T07:28:32.813Z,99127.34
2023-11-09T07:31:01.782Z,99141.59
2023-11-09T07:33:28.203Z,99145.06
2023-11-09T07:35:55.179Z,99156.66
2023-11-09T07:38:22.880Z,99154.44
2023-11-09T07:40:50.453Z,99142.38
2023-11-09T07:43:17.211Z,99153.22
2023-11-09T07:45:43.611Z,99140.22
2023-11-09T07:48:10.079Z,99147.19
2023-11-09T07:50:36.857Z,99143.66
2023-11-09T07:53:03.408Z,99144.66
2023-11-09T07:55:32.907Z,99147.47
2023-11-09T07:58:03.784Z,99144.97
2023-11-09T08:00:30.901Z,99150.41
2023-11-09T08:02:59.335Z,99143.56
2023-11-09T08:05:26.412Z,99140.31
2023-11-09T08:07:54.511Z,99147.31
2023-11-09T08:10:22.759Z,99136.72
2023-11-09T08:12:49.386Z,99137.44
2023-11-09T08:15:19.461Z,99140.00
2023-11-09T08:17:46.541Z,99142.59
2023-11-09T08:20:16.776Z,99145.94
2023-11-09T08:22:46.188Z,99136.97
2023-11-09T08:25:17.104Z,99135.06
2023-11-09T08:27:43.681Z,99147.28
2023-11-09T08:30:11.401Z,99152.69
2023-11-09T08:32:38.757Z,99156.19
2023-11-09T08:35:11.181Z,99154.38
2023-11-09T08:37:41.842Z,99164.59
2023-11-09T08:40:19.928Z,99154.88
2023-11-09T08:42:49.980Z,99159.22
2023-11-09T08:45:18.731Z,99147.97
2023-11-09T08:47:45.708Z,99146.06
2023-11-09T08:50:13.014Z,99140.00
2023-11-09T08:52:42.757Z,99141.66
2023-11-09T08:55:10.283Z,99140.78
2023-11-09T08:57:38.326Z,99138.38
2023-11-09T09:00:12.901Z,99134.94
2023-11-09T09:02:46.054Z,99131.44
2023-11-09T09:05:16.401Z,99128.75
2023-11-09T09:07:43.515Z,99119.84
2023-11-09T09:10:14.262Z,99126.84
2023-11-09T09:12:40.856Z,99122.25
2023-11-09T09:15:14.033Z,99122.09
2023-11-09T09:17:44.146Z,99107.84
2023-11-09T09:20:14.528Z,99106.88
2023-11-09T09:22:41.163Z,99115.50
2023-11-09T09:25:11.717Z,99107.44
2023-11-09T09:27:47.173Z,99108.22
2023-11-09T09:30:15.321Z,99102.88
2023-11-09T09:32:43.762Z,99107.84
2023-11-09T09:35:13.060Z,99103.31
2023-11-09T09:37:46.851Z,99108.56
2023-11-09T09:40:18.059Z,99111.03
2023-11-09T09:42:50.853Z,99108.25
2023-11-09T09:45:19.540Z,99116.91
2023-11-09T09:47:51.270Z,99112.50
2023-11-09T09:50:18.899Z,99109.81
2023-11-09T09:52:49.150Z,99114.16
2023-11-09T09:55:19.373Z,99112.41
2023-11-09T09:57:46.492Z,99107.91
2023-11-09T10:00:15.055Z,99112.09
2023-11-09T10:02:41.610Z,99108.41
2023-11-09T10:05:14.634Z,99104.81
2023-11-09T10:08:06.181Z,99095.78
2023-11-09T10:10:34.867Z,99107.13
2023-11-09T10:13:03.467Z,99099.91
2023-11-09T10:15:31.126Z,99098.72
2023-11-09T10:18:15.245Z,99089.59
2023-11-09T10:20:41.690Z,99091.94
2023-11-09T10:23:15.447Z,99091.69
2023-11-09T10:25:42.811Z,99094.78
2023-11-09T10:28:12.857Z,99085.69
2023-11-09T10:30:42.844Z,99075.69
2023-11-09T10:33:10.531Z,99076.34
2023-11-09T10:35:42.037Z,99094.97
2023-11-09T10:38:10.582Z,99086.03
2023-11-09T10:40:37.705Z,99070.06
2023-11-09T10:43:06.275Z,99076.88
2023-11-09T10:45:37.774Z,99081.19
2023-11-09T10:48:09.033Z,99069.47
2023-11-09T10:50:48.038Z,99063.16
2023-11-09T10:53:16.481Z,99078.00
2023-11-09T10:55:50.183Z,99057.81
2023-11-09T10:58:21.908Z,99065.16
2023-11-09T11:00:51.790Z,99057.41
2023-11-09T11:03:26.388Z,99058.59
2023-11-09T11:05:59.079Z,99050.91
2023-11-09T11:08:37.289Z,99051.84
2023-11-09T11:11:20.320Z,99044.69
2023-11-09T11:13:55.076Z,99043.50
2023-11-09T11:16:42.360Z,99045.44
2023-11-09T11:19:46.540Z,99046.22
2023-11-09T11:22:31.407Z,99043.75
2023-11-09T11:25:57.338Z,99052.59
2023-11-09T11:28:27.750Z,99041.78
2023-11-09T11:31:02.475Z,99041.06
2023-11-09T11:33:28.819Z,99047.34
2023-11-09T11:35:57.871Z,99038.53
2023-11-09T11:38:30.853Z,99034.91
2023-11-09T11:41:03.449Z,99032.19
2023-11-09T11:43:42.330Z,99031.03
2023-11-09T11:46:13.635Z,99015.09
2023-11-09T11:48:48.600Z,99024.56
2023-11-09T11:51:16.761Z,99011.22
2023-11-09T11:53:45.181Z,99009.31
2023-11-09T11:56:14.296Z,99012.91
2023-11-09T11:58:54.388Z,99014.56
2023-11-09T12:01:33.599Z,99011.97
2023-11-09T12:04:04.801Z,99003.97
2023-11-09T12:06:36.083Z,99009.25
2023-11-09T12:09:08.773Z,99005.53
2023-11-09T12:11:44.331Z,98999.03
2023-11-09T12:14:12.848Z,99007.72
2023-11-09T12:16:40.538Z,99007.44
2023-11-09T12:19:07.277Z,98997.53
2023-11-09T12:21:35.381Z,98989.47
2023-11-09T12:24:02.374Z,98991.00
2023-11-09T12:26:31.184Z,98989.69
2023-11-09T12:28:57.525Z,98977.22
2023-11-09T12:31:26.440Z,98973.50
2023-11-09T12:34:10.016Z,98977.28
2023-11-09T12:36:39.458Z,98976.84
2023-11-09T12:39:24.651Z,98972.69
2023-11-09T12:41:54.077Z,98960.53
2023-11-09T12:44:22.713Z,98951.03
2023-11-09T12:46:49.651Z,98945.66
2023-11-09T12:49:16.326Z,98950.00
2023-11-09T12:51:43.044Z,98956.72
2023-11-09T12:54:10.097Z,98948.28
2023-11-09T12:56:39.330Z,98940.91
2023-11-09T12:59:08.803Z,98938.19
2023-11-09T13:01:35.352Z,98934.69
2023-11-09T13:04:01.729Z,98936.38
2023-11-09T13:06:32.029Z,98932.38
2023-11-09T13:09:30.453Z,98931.53
2023-11-09T13:12:16.793Z,98937.56
2023-11-09T13:14:47.931Z,98932.56
2023-11-09T13:17:21.177Z,98932.16
2023-11-09T13:19:51.721Z,98935.38
2023-11-09T13:22:19.012Z,98927.13
2023-11-09T13:24:46.620Z,98918.50
2023-11-09T13:27:21.055Z,98934.63
2023-11-09T13:29:49.500Z,98934.97
2023-11-09T13:32:21.100Z,98927.00
2023-11-09T13:35:10.926Z,98923.09
2023-11-09T13:37:39.754Z,98917.16
2023-11-09T13:40:18.988Z,98929.72
2023-11-09T13:42:46.695Z,98922.06
2023-11-09T13:45:32.574Z,98922.00
2023-11-09T13:47:59.595Z,98939.72
2023-11-09T13:50:26.779Z,98939.72
2023-11-09T13:52:53.319Z,98918.56
2023-11-09T13:55:38.412Z,98924.72
2023-11-09T13:58:16.338Z,98927.53
2023-11-09T14:00:43.380Z,98925.75
2023-11-09T14:03:13.645Z,98922.38
2023-11-09T14:05:40.614Z,98926.03
2023-11-09T14:08:16.327Z,98928.69
2023-11-09T14:10:42.739Z,98931.50
2023-11-09T14:13:12.056Z,98925.25
2023-11-09T14:15:50.890Z,98929.84
2023-11-09T14:18:26.571Z,98938.81
2023-11-09T14:20:54.529Z,98929.00
2023-11-09T14:23:24.419Z,98919.88
2023-11-09T14:25:50.961Z,98932.06
2023-11-09T14:28:17.392Z,98921.69
2023-11-09T14:30:48.098Z,98929.72
2023-11-09T14:33:17.468Z,98923.75
2023-11-09T14:35:44.085Z,98931.59
2023-11-09T14:38:11.786Z,98930.63
2023-11-09T14:40:39.923Z,98925.56
2023-11-09T14:43:14.139Z,98933.50
2023-11-09T14:45:46.783Z,98943.28
2023-11-09T14:48:14.288Z,98946.16
2023-11-09T14:50:41.858Z,98952.25
2023-11-09T14:53:19.699Z,98949.72
2023-11-09T14:55:57.683Z,98940.84
2023-11-09T14:58:34.790Z,98954.13
2023-11-09T15:01:03.376Z,98953.34
2023-11-09T15:03:32.424Z,98956.22
2023-11-09T15:06:05.944Z,98955.19
2023-11-09T15:08:33.004Z,98954.25
2023-11-09T15:10:59.721Z,98954.41
2023-11-09T15:13:29.873Z,98954.34
2023-11-09T15:16:06.010Z,98956.22
2023-11-09T15:18:34.679Z,98955.34
2023-11-09T15:21:01.739Z,98947.38
2023-11-09T15:23:28.550Z,98951.09
2023-11-09T15:25:55.519Z,98944.16
2023-11-09T15:28:23.254Z,98944.09
2023-11-09T15:30:50.717Z,98946.88
2023-11-09T15:33:17.212Z,98935.63
2023-11-09T15:35:45.199Z,98941.16
2023-11-09T15:38:13.502Z,98943.88
2023-11-09T15:41:15.356Z,98945.81
2023-11-09T15:43:37.866Z,98947.50
2023-11-09T15:46:07.943Z,98947.63
2023-11-09T15:48:34.374Z,98944.34
2023-11-09T15:51:00.943Z,98942.03
2023-11-09T15:53:27.336Z,98946.47
2023-11-09T15:55:54.517Z,98948.97
2023-11-09T15:58:23.548Z,98950.06
2023-11-09T16:00:53.367Z,98947.56
2023-11-09T16:03:24.744Z,98952.28
2023-11-09T16:05:54.995Z,98938.25
2023-11-09T16:08:21.451Z,98944.53
2023-11-09T16:10:48.116Z,98935.88
2023-11-09T16:13:15.599Z,98924.75
2023-11-09T16:15:41.995Z,98938.59
2023-11-09T16:18:08.543Z,98932.38
2023-11-09T16:20:37.790Z,98931.44
2023-11-09T16:23:07.934Z,98934.13
2023-11-09T16:25:35.999Z,98928.13
2023-11-09T16:28:08.154Z,98940.59
2023-11-09T16:30:35.032Z,98940.59
2023-11-09T16:33:01.996Z,98927.34
2023-11-09T16:35:31.146Z,98937.28
2023-11-09T16:37:57.999Z,98926.91
2023-11-09T16:40:24.744Z,98932.19
2023-11-09T16:42:51.249Z,98941.78
2023-11-09T16:45:18.155Z,98937.94
2023-11-09T16:47:47.893Z,98926.56
2023-11-09T16:50:14.988Z,98929.13
2023-11-09T16:52:41.524Z,98927.63
2023-11-09T16:55:09.622Z,98922.59
2023-11-09T16:57:43.967Z,98935.13
2023-11-09T17:00:13.135Z,98922.72
2023-11-09T17:02:39.852Z,98924.59
2023-11-09T17:05:07.814Z,98909.91
2023-11-09T17:07:43.618Z,98903.66
2023-11-09T17:10:12.167Z,98906.41
2023-11-09T17:12:42.227Z,98908.34
2023-11-09T17:15:11.229Z,98917.22
2023-11-09T17:17:38.835Z,98919.00
2023-11-09T17:20:06.723Z,98901.31
2023-11-09T17:22:33.169Z,98911.84
2023-11-09T17:24:59.713Z,98906.63
2023-11-09T17:27:26.153Z,98905.84
2023-11-09T17:29:52.732Z,98908.66
2023-11-09T17:32:19.143Z,98913.91
2023-11-09T17:34:45.534Z,98913.91
2023-11-09T17:37:11.933Z,98914.06
2023-11-09T17:39:39.962Z,98908.75
2023-11-09T17:42:07.082Z,98905.91
2023-11-09T17:44:33.477Z,98891.13
2023-11-09T17:47:00.132Z,98906.75
2023-11-09T17:49:26.640Z,98903.25
2023-11-09T17:51:53.646Z,98905.91
2023-11-09T17:54:20.053Z,98905.91
2023-11-09T17:56:46.426Z,98910.97
2023-11-09T17:59:12.913Z,98904.03
2023-11-09T18:01:39.363Z,98905.91
2023-11-09T18:04:08.612Z,98906.81
2023-11-09T18:06:35.039Z,98907.75
2023-11-09T18:09:01.488Z,98903.31
2023-11-09T18:11:41.264Z,98908.81
2023-11-09T18:14:15.632Z,98909.25
2023-11-09T18:16:43.666Z,98902.25
2023-11-09T18:19:10.322Z,98905.06
2023-11-09T18:21:36.666Z,98906.91
2023-11-09T18:24:03.198Z,98897.50
2023-11-09T18:26:29.556Z,98901.25
2023-11-09T18:28:55.892Z,98895.84
2023-11-09T18:31:23.859Z,98882.78
2023-11-09T18:33:50.488Z,98881.22
2023-11-09T18:36:16.986Z,98874.22
2023-11-09T18:38:43.392Z,98873.53
2023-11-09T18:41:09.845Z,98865.06
2023-11-09T18:43:36.241Z,98881.47
2023-11-09T18:46:02.768Z,98877.91
2023-11-09T18:48:29.226Z,98876.22
2023-11-09T18:53:25.329Z,98876.38
2023-11-09T18:55:53.346Z,98868.44
2023-11-09T18:58:19.721Z,98858.59
2023-11-09T19:00:46.228Z,98856.59
2023-11-09T19:05:42.624Z,98852.88
2023-11-09T19:08:09.001Z,98853.03
2023-11-09T19:10:35.413Z,98850.66
2023-11-09T19:13:06.071Z,98862.81
2023-11-09T19:15:32.792Z,98860.09
2023-11-09T19:17:59.298Z,98850.38
2023-11-09T19:22:54.899Z,98843.88
2023-11-09T19:25:22.063Z,98839.47
2023-11-09T19:27:48.480Z,98843.88
2023-11-09T19:30:16.576Z,98835.09
2023-11-09T19:32:45.298Z,98819.03
2023-11-09T19:35:12.146Z,98824.16
2023-11-09T19:37:38.611Z,98811.59
2023-11-09T19:40:07.767Z,98811.66
2023-11-09T19:42:34.637Z,98796.78
2023-11-09T19:45:01.140Z,98803.66
2023-11-09T19:47:27.516Z,98804.16
2023-11-09T19:49:53.943Z,98798.59
2023-11-09T19:52:20.571Z,98787.69
2023-11-09T19:54:47.532Z,98789.84
2023-11-09T19:57:13.888Z,98782.75
2023-11-09T19:59:40.367Z,98770.13
2023-11-09T20:02:07.443Z,98769.94
2023-11-09T20:04:33.828Z,98772.50
2023-11-09T20:07:01.314Z,98769.59
2023-11-09T20:09:28.062Z,98742.13
2023-11-09T20:11:54.555Z,98762.94
2023-11-09T20:14:20.937Z,98762.72
2023-11-09T20:16:47.466Z,98766.16
2023-11-09T20:19:13.902Z,98771.31
2023-11-09T20:21:40.296Z,98756.13
2023-11-09T20:24:07.268Z,98744.56
2023-11-09T20:26:33.631Z,98763.00
2023-11-09T20:29:00.134Z,98764.75
2023-11-09T20:31:27.252Z,98758.66
2023-11-09T20:33:54.834Z,98773.00
2023-11-09T20:36:21.276Z,98773.66
2023-11-09T20:38:48.447Z,98763.97
2023-11-09T20:41:15.164Z,98767.63
2023-11-09T20:43:42.239Z,98752.38
2023-11-09T20:46:10.614Z,98748.06
2023-11-09T20:48:37.065Z,98748.31
2023-11-09T20:51:03.557Z,98747.38
2023-11-09T20:53:29.968Z,98748.06
2023-11-09T20:55:56.391Z,98733.19
2023-11-09T20:58:22.769Z,98737.69
2023-11-09T21:00:49.304Z,98729.69
2023-11-09T21:03:16.873Z,98736.63
2023-11-09T21:05:43.425Z,98726.25
2023-11-09T21:08:09.973Z,98716.78
2023-11-09T21:10:36.337Z,98713.28
2023-11-09T21:13:02.864Z,98710.03
2023-11-09T21:15:29.313Z,98698.66
2023-11-09T21:17:57.618Z,98699.56
2023-11-09T21:20:24.003Z,98692.41
2023-11-09T21:22:50.668Z,98692.41
2023-11-09T21:25:17.005Z,98697.69
2023-11-09T21:27:44.773Z,98689.59
2023-11-09T21:30:14.172Z,98679.00
2023-11-09T21:32:42.653Z,98680.72
2023-11-09T21:35:15.299Z,98697.56
2023-11-09T21:37:42.521Z,98693.09
2023-11-09T21:40:09.637Z,98687.94
2023-11-09T21:42:36.126Z,98684.44
2023-11-09T21:45:02.667Z,98687.25
2023-11-09T21:47:30.214Z,98680.28
2023-11-09T21:49:58.170Z,98690.03
2023-11-09T21:52:24.604Z,98677.88
2023-11-09T21:54:51.032Z,98677.09
2023-11-09T21:57:17.470Z,98676.41
2023-11-09T21:59:44.290Z,98679.75
2023-11-09T22:02:10.657Z,98666.59
2023-11-09T22:04:38.922Z,98683.47
2023-11-09T22:07:05.853Z,98676.47
2023-11-09T22:09:33.938Z,98671.13
2023-11-09T22:12:01.142Z,98683.47
2023-11-09T22:14:28.503Z,98689.72
2023-11-09T22:16:55.052Z,98679.25
2023-11-09T22:19:21.964Z,98673.91
2023-11-09T22:21:50.017Z,98678.28
2023-11-09T22:24:16.677Z,98674.69
2023-11-09T22:26:49.726Z,98675.22
2023-11-09T22:29:16.381Z,98668.78
2023-11-09T22:31:42.795Z,98668.53
2023-11-09T22:34:09.300Z,98659.03
2023-11-09T22:36:35.824Z,98660.91
2023-11-09T22:39:02.285Z,98663.72
2023-11-09T22:41:28.676Z,98669.94
2023-11-09T22:43:56.548Z,98664.72
2023-11-09T22:46:23.006Z,98669.63
2023-11-09T22:48:49.414Z,98666.84
2023-11-09T22:51:17.702Z,98666.06
2023-11-09T22:53:44.303Z,98665.19
2023-11-09T22:56:12.512Z,98678.59
2023-11-09T22:58:38.864Z,98679.63
2023-11-09T23:01:05.577Z,98662.75
2023-11-09T23:03:33.706Z,98664.56
2023-11-09T23:06:00.868Z,98667.22
2023-11-09T23:08:27.306Z,98665.50
2023-11-09T23:10:53.781Z,98664.00
2023-11-09T23:13:20.204Z,98671.19
2023-11-09T23:15:47.610Z,98674.44
2023-11-09T23:18:16.372Z,98664.94
2023-11-09T23:20:44.387Z,98655.28
2023-11-09T23:23:10.879Z,98645.59
2023-11-09T23:25:37.237Z,98629.94
2023-11-09T23:28:03.748Z,98600.97
2023-11-09T23:30:30.169Z,98613.50
2023-11-09T23:32:56.731Z,98604.22
2023-11-09T23:35:23.144Z,98641.06
2023-11-09T23:37:49.595Z,98649.81
2023-11-09T23:40:16.664Z,98638.59
2023-11-09T23:42:46.319Z,98643.00
2023-11-09T23:45:13.694Z,98646.31
2023-11-09T23:47:40.259Z,98642.03
2023-11-09T23:50:09.201Z,98631.50
2023-11-09T23:52:35.639Z,98633.28
2023-11-09T23:55:02.459Z,98632.28
2023-11-09T23:57:28.760Z,98634.06
2023-11-09T23:59:55.393Z,98629.69
